NCAR-RAP Real-Time Weather Data

Output produced by METARs form (24 February 2024  20:08 UTC)
found at http://weather.rap.ucar.edu/surface/
 
TXKF 241955Z 21028KT 9999 FEW033 SCT190 BKN230 BKN300 21/17 Q1006
TXKF 241855Z 21027G37KT 9999 FEW033 SCT190 BKN230 BKN300 21/17 Q1006
TXKF 241824Z 21030G40KT 9999 SCT033 SCT085 BKN240 BKN300 21/17 Q1007
TXKF 241755Z 21028KT 9999 FEW033 SCT085 BKN240 BKN300 22/17 Q1007
TXKF 241655Z 20029G39KT 9999 SCT033 SCT085 BKN240 BKN300 21/17 Q1008
TXKF 241555Z 20029KT 9999 SCT040 BKN240 BKN300 21/17 Q1009
TXKF 241455Z 21025G36KT 9999 VCSH SCT030 SCT060 BKN230 BKN300 20/16 Q1010
TXKF 241355Z 19023G34KT 9999 BKN053 BKN300 21/16 Q1010
TXKF 241255Z 19023G34KT 9999 SCT057 SCT230 BKN300 20/14 Q1010
TXKF 241155Z 19020KT 9999 FEW050 BKN230 BKN300 20/14 Q1010
TXKF 241055Z 19025KT 9999 FEW050 SCT230 BKN300 19/13 Q1010
TXKF 240955Z 19024KT 9999 FEW045 FEW230 BKN300 19/12 Q1011
TXKF 240855Z 21026KT 9999 OVC044 19/12 Q1011
TXKF 240817Z 21024G34KT 9999 VCSH BKN050 BKN250 19/12 Q1011
TXKF 240755Z 21024KT 9999 VCSH SCT034 BKN053 OVC250 19/13 Q1012
TXKF 240655Z 20025KT 9999 VCSH FEW036 BKN050 OVC250 19/12 Q1012
TXKF 240637Z 20024G34KT 9999 VCSH SCT036 BKN050 OVC250 19/12 Q1013
TXKF 240555Z 20027KT 9999 -SHRA BKN035 OVC250 19/12 Q1013
TXKF 240455Z 20022KT 9999 SCT035 BKN047 BKN250 18/12 Q1014
TXKF 240355Z 21024KT 9999 BKN039 BKN300 18/11 Q1014
TXKF 240255Z 20021KT 9999 BKN038 BKN300 18/11 Q1015
TXKF 240155Z 20017KT 9999 BKN039 18/10 Q1015
TXKF 240055Z 21015KT 9999 BKN038 BKN250 17/10 Q1016
TXKF 232355Z 21014KT 9999 BKN038 BKN300 17/10 Q1016
TXKF 232255Z 22011KT 9999 SCT038 BKN300 16/10 Q1016
TXKF 232155Z 21012KT 9999 FEW040 SCT300 17/10 Q1016
TXKF 232055Z 21011KT 9999 SCT040 18/09 Q1016